Time;durP1;ratioP1;P1;durP2;ratioP2;P2;SDS_P1;SDS_P2;PMS_P1;PMS_P2;Temp;Humidity;BMP_temperature;BMP_pressure;BME280_temperature;BME280_humidity;BME280_pressure;Samples;Min_cycle;Max_cycle;Signal;HPM_P1;HPM_P2
2022/02/27 00:01:23;;;;;;;20.77;13.83;;;6.30;1.00;;;;;;5086459;28;20902;-65
2022/02/27 00:03:49;;;;;;;20.37;11.30;;;6.40;1.00;;;;;;5098582;28;20534;-64
2022/02/27 00:06:15;;;;;;;21.20;11.80;;;6.40;1.00;;;;;;5109981;28;20678;-65
2022/02/27 00:08:40;;;;;;;20.93;12.40;;;6.40;1.00;;;;;;5100255;28;20218;-64
2022/02/27 00:11:06;;;;;;;19.53;10.93;;;6.40;1.00;;;;;;5107017;28;20213;-64
2022/02/27 00:13:32;;;;;;;30.33;11.80;;;6.50;1.00;;;;;;5108871;28;20227;-63
2022/02/27 00:15:57;;;;;;;19.47;11.70;;;6.40;1.00;;;;;;5113347;28;20186;-63
2022/02/27 00:18:23;;;;;;;16.13;11.63;;;6.50;1.00;;;;;;5109330;28;20232;-64
2022/02/27 00:20:48;;;;;;;21.93;11.50;;;6.50;1.00;;;;;;5103792;28;20270;-63
2022/02/27 00:23:14;;;;;;;14.60;11.20;;;6.50;1.00;;;;;;5113567;28;20210;-64
2022/02/27 00:25:40;;;;;;;15.30;10.40;;;6.60;1.00;;;;;;5091638;28;20238;-63
2022/02/27 00:28:07;;;;;;;18.70;11.70;;;6.60;1.00;;;;;;5113483;28;20535;-64
2022/02/27 00:30:34;;;;;;;20.73;11.40;;;6.50;1.00;;;;;;5108751;28;20192;-64
2022/02/27 00:33:00;;;;;;;27.97;13.37;;;;;;;;;;5089707;28;20975;-65
2022/02/27 00:35:25;;;;;;;20.63;11.90;;;6.40;1.00;;;;;;5108188;28;20423;-63
2022/02/27 00:37:51;;;;;;;19.70;13.83;;;6.40;1.00;;;;;;5088625;28;20443;-64
2022/02/27 00:40:16;;;;;;;21.40;12.67;;;6.50;1.00;;;;;;5111792;28;20201;-65
2022/02/27 00:42:42;;;;;;;21.90;13.47;;;6.50;1.00;;;;;;5112855;28;20183;-64
2022/02/27 00:45:08;;;;;;;22.20;13.30;;;6.50;1.00;;;;;;5111240;28;20174;-63
2022/02/27 00:47:34;;;;;;;22.57;13.23;;;;;;;;;;5109739;28;20235;-63
2022/02/27 00:50:00;;;;;;;21.67;12.50;;;6.50;1.00;;;;;;5110168;28;20451;-63
2022/02/27 00:52:26;;;;;;;21.40;12.43;;;6.50;1.00;;;;;;5103711;28;20470;-63
2022/02/27 00:54:52;;;;;;;16.40;11.60;;;6.50;1.00;;;;;;5088288;28;20279;-63
2022/02/27 00:57:19;;;;;;;23.90;12.80;;;6.40;1.00;;;;;;5110496;28;20444;-63
2022/02/27 00:59:45;;;;;;;25.87;12.20;;;6.40;1.00;;;;;;5109008;28;20969;-64
2022/02/27 01:02:13;;;;;;;19.73;11.40;;;6.40;1.00;;;;;;5109272;28;20441;-63
2022/02/27 01:04:40;;;;;;;13.53;10.90;;;6.50;1.00;;;;;;5110789;28;20550;-64
2022/02/27 01:07:05;;;;;;;17.50;11.43;;;6.40;1.00;;;;;;5108459;28;20531;-63
2022/02/27 01:09:31;;;;;;;18.87;13.20;;;6.40;1.00;;;;;;5113944;28;20189;-64
2022/02/27 01:11:57;;;;;;;18.33;10.70;;;6.40;1.00;;;;;;5107545;28;20237;-62
2022/02/27 01:14:22;;;;;;;20.53;11.97;;;6.40;1.00;;;;;;5111640;28;20223;-64
2022/02/27 01:16:48;;;;;;;21.10;11.50;;;;;;;;;;5107508;28;20202;-64
2022/02/27 01:19:13;;;;;;;18.93;11.83;;;6.30;1.00;;;;;;5110233;28;20260;-64
2022/02/27 01:21:39;;;;;;;17.97;10.83;;;6.30;1.00;;;;;;5105655;28;20497;-66
2022/02/27 01:24:06;;;;;;;23.47;10.67;;;6.30;1.00;;;;;;5106794;28;20556;-64
2022/02/27 01:26:32;;;;;;;18.60;12.30;;;;;;;;;;5091006;28;20528;-65
2022/02/27 01:28:57;;;;;;;19.57;14.17;;;6.40;1.00;;;;;;5103700;28;20497;-63
2022/02/27 01:31:23;;;;;;;16.97;13.00;;;6.30;1.00;;;;;;5110380;28;20452;-64
2022/02/27 01:33:49;;;;;;;24.30;15.43;;;6.30;1.00;;;;;;5108134;28;20668;-64
2022/02/27 01:36:14;;;;;;;21.50;15.30;;;6.30;1.00;;;;;;5102287;28;20186;-63
2022/02/27 01:38:40;;;;;;;23.50;15.93;;;6.40;1.00;;;;;;5103449;28;20193;-63
2022/02/27 01:41:06;;;;;;;25.27;15.03;;;;;;;;;;5102351;28;20190;-63
2022/02/27 01:43:32;;;;;;;19.63;14.33;;;6.30;1.00;;;;;;5108342;28;20182;-65
2022/02/27 01:45:57;;;;;;;23.43;15.00;;;6.20;1.00;;;;;;5105220;28;20448;-63
2022/02/27 01:48:23;;;;;;;16.97;13.03;;;6.30;1.00;;;;;;5103481;28;20179;-64
2022/02/27 01:50:49;;;;;;;24.73;14.40;;;;;;;;;;5108897;28;20191;-64
2022/02/27 01:53:15;;;;;;;21.20;14.47;;;6.20;1.00;;;;;;5100775;28;20425;-64
2022/02/27 01:55:41;;;;;;;18.63;14.30;;;6.20;1.00;;;;;;5110956;28;20475;-64
2022/02/27 01:58:06;;;;;;;21.43;15.00;;;6.20;1.00;;;;;;5085739;28;20194;-66
2022/02/27 02:00:32;;;;;;;29.83;14.27;;;6.20;1.00;;;;;;5106239;28;20247;-63
2022/02/27 02:02:57;;;;;;;17.80;13.13;;;6.10;1.00;;;;;;5100374;28;20186;-63
2022/02/27 02:05:23;;;;;;;20.13;11.07;;;6.10;1.00;;;;;;5102854;28;20629;-64
2022/02/27 02:07:49;;;;;;;20.23;10.93;;;6.00;1.00;;;;;;5101302;28;20273;-64
2022/02/27 02:10:14;;;;;;;21.70;12.30;;;5.90;1.00;;;;;;5101536;28;20186;-65
2022/02/27 02:12:40;;;;;;;17.17;11.57;;;5.90;1.00;;;;;;5100431;28;20194;-63
2022/02/27 02:15:06;;;;;;;21.07;12.17;;;5.80;1.00;;;;;;5105162;28;20671;-64
2022/02/27 02:17:34;;;;;;;16.67;10.70;;;5.70;1.00;;;;;;5108841;28;20201;-63
2022/02/27 02:20:00;;;;;;;17.40;12.40;;;5.70;1.00;;;;;;5106397;28;20464;-63
2022/02/27 02:22:25;;;;;;;29.23;12.60;;;5.70;1.00;;;;;;5102004;28;20471;-62
2022/02/27 02:24:51;;;;;;;16.93;11.67;;;5.80;1.00;;;;;;5110303;28;20651;-63
2022/02/27 02:27:17;;;;;;;21.63;11.13;;;;;;;;;;5100914;28;20241;-64
2022/02/27 02:29:42;;;;;;;18.07;11.83;;;6.00;1.00;;;;;;5106398;28;20213;-64
2022/02/27 02:32:08;;;;;;;20.53;11.13;;;5.90;1.00;;;;;;5106101;28;21055;-62
2022/02/27 02:34:34;;;;;;;14.47;10.43;;;5.90;1.00;;;;;;5105155;28;20197;-62
2022/02/27 02:36:59;;;;;;;14.03;10.40;;;6.00;1.00;;;;;;5102420;28;20187;-62
2022/02/27 02:39:27;;;;;;;22.10;11.63;;;6.00;1.00;;;;;;5103561;28;20202;-62
2022/02/27 02:41:53;;;;;;;18.50;11.70;;;6.10;1.00;;;;;;5105597;28;20182;-61
2022/02/27 02:44:18;;;;;;;18.07;11.77;;;6.10;1.00;;;;;;5101190;28;20452;-63
2022/02/27 02:46:44;;;;;;;22.93;11.47;;;6.00;1.00;;;;;;5105263;28;20178;-64
2022/02/27 02:49:12;;;;;;;13.97;10.83;;;6.00;1.00;;;;;;5103476;28;20182;-65
2022/02/27 02:51:38;;;;;;;21.03;11.30;;;5.90;1.00;;;;;;5108294;28;20512;-64
2022/02/27 02:54:05;;;;;;;18.07;12.10;;;5.90;1.00;;;;;;5109122;28;20811;-64
2022/02/27 02:56:31;;;;;;;19.37;11.07;;;5.80;1.00;;;;;;5106084;28;20508;-62
2022/02/27 02:58:56;;;;;;;17.90;10.00;;;5.70;1.00;;;;;;5108889;28;20944;-62
2022/02/27 03:01:25;;;;;;;19.33;11.27;;;5.80;1.00;;;;;;5107846;28;20446;-63
2022/02/27 03:03:52;;;;;;;17.40;10.70;;;5.80;1.00;;;;;;5113522;28;20192;-63
2022/02/27 03:06:18;;;;;;;16.37;10.10;;;5.80;1.00;;;;;;5113582;28;20984;-63
2022/02/27 03:08:46;;;;;;;17.00;11.57;;;5.80;1.00;;;;;;5112756;28;20535;-63
2022/02/27 03:11:13;;;;;;;16.00;11.10;;;6.00;1.00;;;;;;5105974;28;20876;-63
2022/02/27 03:13:39;;;;;;;15.83;11.67;;;;;;;;;;5105986;28;20982;-62
2022/02/27 03:16:07;;;;;;;17.27;10.77;;;6.00;1.00;;;;;;5105699;28;20441;-63
2022/02/27 03:18:33;;;;;;;17.53;10.07;;;6.10;1.00;;;;;;5108746;28;20814;-64
2022/02/27 03:20:59;;;;;;;22.83;12.20;;;6.10;1.00;;;;;;5110572;28;20460;-62
2022/02/27 03:23:26;;;;;;;16.33;10.37;;;6.10;1.00;;;;;;5105114;28;20644;-63
2022/02/27 03:25:52;;;;;;;14.60;10.83;;;6.10;1.00;;;;;;5104621;28;20865;-63
2022/02/27 03:28:18;;;;;;;17.20;11.87;;;6.10;1.00;;;;;;5103457;28;20553;-62
2022/02/27 03:30:44;;;;;;;19.97;12.40;;;;;;;;;;5113332;28;20425;-63
2022/02/27 03:33:10;;;;;;;19.13;13.27;;;6.00;1.00;;;;;;5096032;28;20340;-62
2022/02/27 03:35:36;;;;;;;21.30;11.97;;;6.00;1.00;;;;;;5101875;28;20445;-63
2022/02/27 03:38:02;;;;;;;16.43;11.00;;;5.90;1.00;;;;;;5106850;28;20185;-64
2022/02/27 03:40:29;;;;;;;19.33;11.50;;;5.80;1.00;;;;;;5106766;28;20267;-64
2022/02/27 03:42:54;;;;;;;21.03;12.97;;;5.70;1.00;;;;;;5107882;28;20526;-63
2022/02/27 03:45:20;;;;;;;19.83;12.40;;;5.70;1.00;;;;;;5100523;28;20424;-63
2022/02/27 03:47:47;;;;;;;19.03;12.00;;;5.70;1.00;;;;;;5102550;28;20713;-62
2022/02/27 03:50:15;;;;;;;21.03;12.10;;;5.70;1.00;;;;;;5104709;28;20190;-63
2022/02/27 03:52:41;;;;;;;18.23;11.87;;;5.60;1.00;;;;;;5102553;28;20959;-64
2022/02/27 03:55:09;;;;;;;21.90;12.30;;;5.70;1.00;;;;;;5100842;28;20439;-63
2022/02/27 03:57:35;;;;;;;18.53;12.50;;;5.70;1.00;;;;;;5105150;28;20447;-62
2022/02/27 04:00:01;;;;;;;15.20;11.67;;;5.60;1.00;;;;;;5090007;28;20467;-62
2022/02/27 04:02:26;;;;;;;22.17;12.27;;;5.60;1.00;;;;;;5105739;28;20193;-63
2022/02/27 04:04:52;;;;;;;11.37;9.00;;;5.60;1.00;;;;;;5098224;28;20914;-64
2022/02/27 04:07:18;;;;;;;18.60;10.07;;;;;;;;;;5102710;28;20213;-63
2022/02/27 04:09:43;;;;;;;15.87;9.27;;;5.60;1.00;;;;;;5108789;28;20624;-63
2022/02/27 04:12:09;;;;;;;13.87;10.13;;;5.60;1.00;;;;;;5112521;28;20426;-62
2022/02/27 04:14:35;;;;;;;18.50;12.40;;;5.70;1.00;;;;;;5112572;28;20314;-63
2022/02/27 04:17:00;;;;;;;26.00;14.33;;;5.70;1.00;;;;;;5108089;28;20211;-62
2022/02/27 04:19:26;;;;;;;18.10;13.07;;;5.70;1.00;;;;;;5104678;28;20213;-64
2022/02/27 04:21:51;;;;;;;21.77;13.43;;;5.80;1.00;;;;;;5108127;28;20178;-63
2022/02/27 04:24:17;;;;;;;25.60;14.80;;;5.80;1.00;;;;;;5108245;28;20304;-63
2022/02/27 04:26:43;;;;;;;19.60;13.50;;;5.80;1.00;;;;;;5112993;28;20182;-64
2022/02/27 04:29:09;;;;;;;22.30;14.17;;;5.80;1.00;;;;;;5108409;28;20228;-64
2022/02/27 04:31:35;;;;;;;20.67;14.87;;;;;;;;;;5102021;28;20448;-63
2022/02/27 04:34:01;;;;;;;23.70;13.17;;;5.90;1.00;;;;;;5111982;28;20442;-63
2022/02/27 04:36:27;;;;;;;22.40;14.20;;;5.80;1.00;;;;;;5098063;28;20849;-63
2022/02/27 04:38:52;;;;;;;24.17;13.80;;;5.80;1.00;;;;;;5112170;28;20535;-63
2022/02/27 04:41:19;;;;;;;20.57;13.40;;;5.60;1.00;;;;;;5105676;28;20182;-63
2022/02/27 04:43:46;;;;;;;19.90;15.17;;;5.50;1.00;;;;;;5102725;28;20209;-64
2022/02/27 04:46:12;;;;;;;23.60;13.70;;;8.70;1.00;;;;;;5100335;28;20445;-63
2022/02/27 04:48:38;;;;;;;16.67;11.40;;;5.30;1.00;;;;;;5101680;28;21813;-64
2022/02/27 04:51:07;;;;;;;20.67;12.57;;;5.10;1.00;;;;;;5103628;28;20450;-63
2022/02/27 04:53:33;;;;;;;17.80;10.77;;;5.00;1.00;;;;;;5106637;28;20225;-64
2022/02/27 04:55:59;;;;;;;14.43;8.80;;;;;;;;;;5112267;28;20457;-64
2022/02/27 04:58:25;;;;;;;10.70;8.20;;;;;;;;;;5102284;28;20435;-62
2022/02/27 05:00:50;;;;;;;12.97;8.57;;;4.80;1.00;;;;;;5105322;28;20467;-62
2022/02/27 05:03:16;;;;;;;14.30;7.90;;;;;;;;;;5104270;28;20441;-63
2022/02/27 05:05:42;;;;;;;15.97;8.40;;;4.60;1.00;;;;;;5105813;28;20214;-63
2022/02/27 05:08:07;;;;;;;16.13;7.97;;;4.60;1.00;;;;;;5107876;28;20478;-62
2022/02/27 05:10:33;;;;;;;14.13;8.80;;;4.60;1.00;;;;;;5106235;28;20262;-63
2022/02/27 05:12:59;;;;;;;15.90;8.27;;;4.60;1.00;;;;;;5107616;28;20189;-62
2022/02/27 05:15:25;;;;;;;11.67;8.20;;;4.50;1.00;;;;;;5106720;28;20700;-64
2022/02/27 05:17:51;;;;;;;11.17;8.37;;;4.50;1.00;;;;;;5113467;28;20182;-63
2022/02/27 05:20:17;;;;;;;14.07;8.90;;;4.40;1.00;;;;;;5107925;28;20224;-64
2022/02/27 05:22:45;;;;;;;15.47;9.13;;;4.40;1.00;;;;;;5108196;28;20957;-62
2022/02/27 05:25:11;;;;;;;19.73;9.30;;;4.40;1.00;;;;;;5108238;28;20451;-63
2022/02/27 05:27:37;;;;;;;17.43;8.70;;;4.30;1.00;;;;;;5109778;28;21016;-63
2022/02/27 05:30:07;;;;;;;19.87;8.40;;;4.30;1.00;;;;;;5100080;28;20478;-63
2022/02/27 05:32:32;;;;;;;11.57;8.13;;;4.30;1.00;;;;;;5083398;28;20182;-64
2022/02/27 05:34:58;;;;;;;15.30;8.70;;;4.30;1.00;;;;;;5105376;28;20444;-65
2022/02/27 05:37:23;;;;;;;13.23;8.43;;;4.30;1.00;;;;;;5110200;28;20185;-63
2022/02/27 05:39:50;;;;;;;14.67;9.07;;;4.30;1.00;;;;;;5109298;28;20609;-63
2022/02/27 05:42:15;;;;;;;20.50;9.73;;;4.30;1.00;;;;;;5108262;28;20182;-61
2022/02/27 05:44:41;;;;;;;16.33;9.73;;;4.30;1.00;;;;;;5104029;28;21170;-62
2022/02/27 05:47:06;;;;;;;15.03;8.90;;;4.20;1.00;;;;;;5100171;28;20657;-62
2022/02/27 05:49:32;;;;;;;16.13;9.57;;;4.20;1.00;;;;;;5103071;28;20182;-63
2022/02/27 05:51:58;;;;;;;14.13;9.50;;;4.10;1.00;;;;;;5107945;28;20190;-63
2022/02/27 05:54:23;;;;;;;13.93;9.27;;;4.10;1.00;;;;;;5113137;28;20510;-63
2022/02/27 05:56:49;;;;;;;14.27;8.57;;;;;;;;;;5102044;28;20179;-63
2022/02/27 05:59:15;;;;;;;14.23;9.10;;;4.10;1.00;;;;;;5106555;28;20259;-63
2022/02/27 06:01:40;;;;;;;20.60;9.30;;;4.00;1.00;;;;;;5108311;28;20449;-62
2022/02/27 06:04:06;;;;;;;11.60;8.50;;;4.10;1.00;;;;;;5109292;28;20182;-63
2022/02/27 06:06:31;;;;;;;16.57;9.60;;;4.00;1.00;;;;;;5113364;28;20197;-63
2022/02/27 06:08:57;;;;;;;18.10;11.03;;;4.00;1.00;;;;;;5108276;28;20182;-63
2022/02/27 06:11:22;;;;;;;17.67;9.43;;;4.00;1.00;;;;;;5102033;28;20186;-63
2022/02/27 06:13:48;;;;;;;16.40;10.60;;;4.00;1.00;;;;;;5107292;28;20548;-63
2022/02/27 06:16:13;;;;;;;12.07;9.50;;;3.90;1.00;;;;;;5105971;28;20640;-62
2022/02/27 06:18:39;;;;;;;14.53;8.50;;;;;;;;;;5106130;28;20193;-62
2022/02/27 06:21:05;;;;;;;22.30;10.07;;;3.90;1.00;;;;;;5104577;28;20229;-62
2022/02/27 06:23:31;;;;;;;15.73;9.30;;;3.90;1.00;;;;;;5109121;28;20452;-64
2022/02/27 06:25:56;;;;;;;13.00;10.13;;;3.90;1.00;;;;;;5106784;28;20197;-62
2022/02/27 06:28:22;;;;;;;16.40;9.80;;;3.90;1.00;;;;;;5104907;28;20643;-63
2022/02/27 06:30:47;;;;;;;15.40;9.13;;;3.90;1.00;;;;;;5112484;28;20202;-62
2022/02/27 06:33:13;;;;;;;17.20;9.90;;;3.80;1.00;;;;;;5083089;28;20567;-63
2022/02/27 06:35:38;;;;;;;20.73;10.53;;;3.80;1.00;;;;;;5103921;28;20190;-62
2022/02/27 06:38:04;;;;;;;14.30;9.60;;;3.90;1.00;;;;;;5103736;28;20266;-63
2022/02/27 06:40:29;;;;;;;15.07;10.37;;;3.90;1.00;;;;;;5107090;28;20217;-63
2022/02/27 06:42:55;;;;;;;15.20;10.10;;;3.90;1.00;;;;;;5090642;28;20190;-64
2022/02/27 06:45:20;;;;;;;16.80;9.97;;;4.00;1.00;;;;;;5113586;28;20228;-62
2022/02/27 06:47:46;;;;;;;12.23;9.70;;;4.00;1.00;;;;;;5109233;28;20567;-62
2022/02/27 06:50:12;;;;;;;17.90;10.47;;;4.00;1.00;;;;;;5109101;28;20216;-63
2022/02/27 06:52:38;;;;;;;13.90;9.27;;;4.10;1.00;;;;;;5113164;28;20185;-63
2022/02/27 06:55:05;;;;;;;18.17;10.93;;;4.10;1.00;;;;;;5110378;28;20476;-65
2022/02/27 06:57:30;;;;;;;13.90;10.83;;;4.10;1.00;;;;;;5113447;28;20936;-64
2022/02/27 06:59:56;;;;;;;21.53;11.20;;;4.10;1.00;;;;;;5112360;28;20473;-64
2022/02/27 07:02:22;;;;;;;20.20;12.87;;;4.20;1.00;;;;;;5112866;28;20217;-64
2022/02/27 07:04:48;;;;;;;13.17;9.37;;;;;;;;;;5113456;28;20788;-64
2022/02/27 07:07:14;;;;;;;16.70;9.73;;;;;;;;;;5102780;28;20492;-63
2022/02/27 07:09:40;;;;;;;14.93;10.23;;;;;;;;;;5107628;28;20449;-63
2022/02/27 07:12:06;;;;;;;17.00;11.07;;;;;;;;;;5098399;28;20536;-63
2022/02/27 07:14:32;;;;;;;17.17;11.07;;;4.20;1.00;;;;;;5108394;28;20422;-62
2022/02/27 07:16:59;;;;;;;15.20;11.00;;;4.20;1.00;;;;;;5107667;28;20464;-62
2022/02/27 07:19:24;;;;;;;16.10;10.20;;;4.40;1.00;;;;;;5108485;28;20490;-63
2022/02/27 07:21:50;;;;;;;16.00;10.57;;;4.50;1.00;;;;;;5104534;28;20433;-63
2022/02/27 07:24:16;;;;;;;15.87;11.00;;;;;;;;;;5106415;28;20211;-63
2022/02/27 07:26:42;;;;;;;14.07;9.50;;;4.50;1.00;;;;;;5105360;28;20200;-63
2022/02/27 07:29:08;;;;;;;14.17;10.40;;;4.40;1.00;;;;;;5108897;28;20455;-63
2022/02/27 07:31:34;;;;;;;15.37;10.60;;;;;;;;;;5110746;28;20190;-63
2022/02/27 07:34:01;;;;;;;13.23;10.00;;;4.50;1.00;;;;;;5105627;28;20540;-61
2022/02/27 07:36:27;;;;;;;18.30;10.20;;;4.50;1.00;;;;;;5107983;28;20459;-62
2022/02/27 07:38:52;;;;;;;16.87;9.90;;;4.60;1.00;;;;;;5109575;28;20521;-63
2022/02/27 07:41:18;;;;;;;16.87;10.30;;;4.60;1.00;;;;;;5104964;28;20632;-63
2022/02/27 07:43:43;;;;;;;13.63;10.63;;;4.70;1.00;;;;;;5104343;28;20677;-65
2022/02/27 07:46:09;;;;;;;14.67;10.40;;;4.80;1.00;;;;;;5108158;28;20287;-63
2022/02/27 07:48:34;;;;;;;16.33;10.83;;;4.90;1.00;;;;;;5104908;28;20248;-64
2022/02/27 07:51:01;;;;;;;21.03;10.97;;;4.90;1.00;;;;;;5099795;28;20569;-64
2022/02/27 07:53:26;;;;;;;14.60;11.00;;;5.10;1.00;;;;;;5099484;28;20237;-62
2022/02/27 07:55:53;;;;;;;17.37;11.40;;;5.20;1.00;;;;;;5104255;28;20988;-64
2022/02/27 07:58:19;;;;;;;15.90;11.43;;;;;;;;;;5101813;28;20190;-64
2022/02/27 08:00:45;;;;;;;14.63;10.90;;;5.50;1.00;;;;;;5106304;28;21029;-63
2022/02/27 08:03:11;;;;;;;18.77;11.47;;;5.60;1.00;;;;;;5100357;28;20451;-64
2022/02/27 08:05:38;;;;;;;16.50;11.33;;;;;;;;;;5104589;28;20548;-63
2022/02/27 08:08:04;;;;;;;16.57;10.47;;;6.10;1.00;;;;;;5086216;28;20439;-63
2022/02/27 08:10:29;;;;;;;22.10;11.93;;;6.40;1.00;;;;;;5103087;28;20772;-63
2022/02/27 08:12:55;;;;;;;15.80;10.83;;;6.70;1.00;;;;;;5101955;28;20559;-64
2022/02/27 08:15:21;;;;;;;12.10;9.53;;;;;;;;;;5099201;28;20189;-69
2022/02/27 08:17:50;;;;;;;16.73;11.23;;;;;;;;;;5097979;28;20181;-66
2022/02/27 08:20:16;;;;;;;16.20;10.90;;;7.20;1.00;;;;;;5106078;28;20471;-67
2022/02/27 08:22:42;;;;;;;14.33;10.50;;;;;;;;;;5099895;28;20937;-65
2022/02/27 08:25:11;;;;;;;16.77;10.83;;;7.10;1.00;;;;;;5104209;28;20252;-63
2022/02/27 08:27:36;;;;;;;18.50;11.07;;;7.10;1.00;;;;;;5100215;28;20444;-62
2022/02/27 08:30:03;;;;;;;17.70;11.27;;;7.00;1.00;;;;;;5097252;28;21048;-62
2022/02/27 08:32:28;;;;;;;18.13;10.13;;;7.20;1.00;;;;;;5105560;28;20194;-62
2022/02/27 08:34:54;;;;;;;12.20;10.03;;;;;;;;;;5096951;28;20440;-63
2022/02/27 08:37:20;;;;;;;18.80;10.67;;;7.20;1.00;;;;;;5106282;28;20658;-63
2022/02/27 08:39:46;;;;;;;15.10;11.20;;;;;;;;;;5111672;28;20489;-58
2022/02/27 08:42:11;;;;;;;13.83;10.50;;;7.30;1.00;;;;;;5107907;28;20178;-59
2022/02/27 08:44:38;;;;;;;18.20;10.30;;;7.30;1.00;;;;;;5104459;28;20523;-59
2022/02/27 08:47:05;;;;;;;14.97;10.63;;;7.60;1.00;;;;;;5102590;28;20579;-58
2022/02/27 08:49:31;;;;;;;15.93;11.57;;;;;;;;;;5087834;28;20418;-58
2022/02/27 08:51:57;;;;;;;17.63;10.70;;;;;;;;;;5110468;28;20427;-57
2022/02/27 08:54:23;;;;;;;15.47;10.70;;;8.00;1.00;;;;;;5085451;28;20464;-58
2022/02/27 08:56:49;;;;;;;19.50;10.97;;;8.00;1.00;;;;;;5107138;28;20447;-58
2022/02/27 08:59:15;;;;;;;14.70;10.63;;;8.10;1.00;;;;;;5104814;28;20464;-57
2022/02/27 09:01:41;;;;;;;16.37;9.83;;;8.10;1.00;;;;;;5107993;28;20173;-57
2022/02/27 09:04:07;;;;;;;12.77;10.00;;;;;;;;;;5107992;28;20178;-57
2022/02/27 09:06:33;;;;;;;17.63;10.70;;;;;;;;;;5103647;28;20704;-58
2022/02/27 09:08:59;;;;;;;16.20;10.53;;;;;;;;;;5085808;28;20446;-58
2022/02/27 09:11:24;;;;;;;15.10;9.00;;;8.60;1.00;;;;;;5105100;28;20444;-58
2022/02/27 09:13:50;;;;;;;14.53;9.67;;;;;;;;;;5104461;28;20415;-58
2022/02/27 09:16:16;;;;;;;11.80;9.73;;;;;;;;;;5108465;28;20190;-57
2022/02/27 09:18:42;;;;;;;12.20;9.50;;;;;;;;;;5107623;28;20497;-58
2022/02/27 09:21:08;;;;;;;13.73;9.20;;;8.80;1.00;;;;;;5107625;28;20494;-59
2022/02/27 09:23:35;;;;;;;12.57;8.90;;;;;;;;;;5107235;28;20431;-58
2022/02/27 09:26:02;;;;;;;14.93;8.90;;;9.00;1.00;;;;;;5085328;28;20451;-58
2022/02/27 09:28:31;;;;;;;12.67;8.73;;;;;;;;;;5101568;28;20491;-58
2022/02/27 09:30:57;;;;;;;10.57;6.97;;;;;;;;;;5101042;28;20918;-58
2022/02/27 09:33:23;;;;;;;12.70;8.70;;;;;;;;;;5111247;28;20441;-56
2022/02/27 09:35:50;;;;;;;7.73;6.37;;;;;;;;;;5106575;28;20436;-57
2022/02/27 09:38:15;;;;;;;11.10;7.63;;;9.70;1.00;;;;;;5100733;28;20922;-57
2022/02/27 09:40:41;;;;;;;8.77;6.83;;;9.90;1.00;;;;;;5103843;28;20495;-58
2022/02/27 09:43:07;;;;;;;8.20;6.73;;;9.80;1.00;;;;;;5106037;28;20182;-57
2022/02/27 09:45:32;;;;;;;10.40;7.57;;;9.90;1.00;;;;;;5102850;28;20213;-57
2022/02/27 09:47:58;;;;;;;8.17;7.00;;;;;;;;;;5107136;28;20182;-57
2022/02/27 09:50:25;;;;;;;13.53;7.30;;;10.20;1.00;;;;;;5103760;28;20185;-58
2022/02/27 09:52:52;;;;;;;7.57;5.33;;;10.40;1.00;;;;;;5109031;28;20507;-58
2022/02/27 09:55:18;;;;;;;7.90;5.60;;;10.40;1.00;;;;;;5100510;28;20499;-57
2022/02/27 09:57:46;;;;;;;10.53;5.80;;;10.30;1.00;;;;;;5108154;28;20444;-56
2022/02/27 10:00:15;;;;;;;7.33;5.53;;;10.30;1.00;;;;;;5108317;28;20463;-57
2022/02/27 10:03:12;;;;;;;6.70;5.03;;;10.30;1.00;;;;;;5108502;28;20922;-57
2022/02/27 10:05:44;;;;;;;8.20;4.90;;;10.20;1.00;;;;;;5104974;28;20436;-58
2022/02/27 10:08:11;;;;;;;8.13;4.03;;;10.30;1.00;;;;;;5106930;28;20953;-56
2022/02/27 10:10:39;;;;;;;4.70;4.00;;;10.50;1.00;;;;;;5108033;28;20457;-58
2022/02/27 10:13:09;;;;;;;6.10;3.63;;;;;;;;;;5108722;28;20475;-59
2022/02/27 10:15:35;;;;;;;5.73;4.20;;;10.60;1.00;;;;;;5101213;28;20410;-56
2022/02/27 10:18:13;;;;;;;5.60;3.97;;;10.80;1.00;;;;;;5089574;28;20436;-57
2022/02/27 10:20:40;;;;;;;7.80;4.47;;;10.90;1.00;;;;;;5106801;28;20474;-57
2022/02/27 10:23:06;;;;;;;4.47;3.77;;;10.90;1.00;;;;;;5102893;28;20470;-57
2022/02/27 10:25:31;;;;;;;4.17;3.63;;;10.90;1.00;;;;;;5105978;28;20869;-58
2022/02/27 10:27:58;;;;;;;4.33;3.90;;;;;;;;;;5106185;28;20174;-56
2022/02/27 10:30:38;;;;;;;5.90;3.90;;;10.80;1.00;;;;;;5070149;28;20182;-57
2022/02/27 10:33:06;;;;;;;4.23;3.37;;;11.00;1.00;;;;;;5103805;28;20528;-56
2022/02/27 10:35:42;;;;;;;5.13;3.77;;;;;;;;;;5082342;28;20578;-57
2022/02/27 10:38:53;;;;;;;6.33;3.60;;;11.10;1.00;;;;;;5110467;28;20802;-57
2022/02/27 10:41:21;;;;;;;4.10;3.70;;;10.90;1.00;;;;;;5099497;28;20452;-56
2022/02/27 10:43:48;;;;;;;4.70;3.47;;;11.00;1.00;;;;;;5109752;28;20531;-57
2022/02/27 10:46:19;;;;;;;4.50;3.43;;;11.00;1.00;;;;;;5087438;28;20407;-57
2022/02/27 10:48:48;;;;;;;3.77;3.40;;;10.70;1.00;;;;;;5106918;28;20436;-57
2022/02/27 10:51:14;;;;;;;4.00;3.60;;;10.80;1.00;;;;;;5106696;28;20496;-56
2022/02/27 10:53:42;;;;;;;4.90;4.40;;;10.90;1.00;;;;;;5107779;28;20459;-58
2022/02/27 10:56:10;;;;;;;4.43;3.80;;;11.10;1.00;;;;;;5102369;28;20431;-59
2022/02/27 10:58:40;;;;;;;3.43;3.13;;;11.30;1.00;;;;;;5105551;28;20464;-57
2022/02/27 11:01:23;;;;;;;3.70;3.33;;;11.50;1.00;;;;;;5109489;28;20556;-58
2022/02/27 11:03:49;;;;;;;4.87;3.60;;;;;;;;;;5105937;28;20418;-58
2022/02/27 11:06:16;;;;;;;4.70;3.80;;;11.90;1.00;;;;;;5081212;28;20431;-58
2022/02/27 11:08:42;;;;;;;4.33;3.70;;;12.00;1.00;;;;;;5104872;28;20495;-58
2022/02/27 11:11:09;;;;;;;4.50;3.40;;;12.00;1.00;;;;;;5084184;28;20447;-59
2022/02/27 11:13:35;;;;;;;4.43;3.37;;;;;;;;;;5106456;28;20452;-57
2022/02/27 11:16:02;;;;;;;4.80;3.60;;;12.10;1.00;;;;;;5106073;28;20493;-57
2022/02/27 11:18:28;;;;;;;3.97;3.30;;;12.00;1.00;;;;;;5102435;28;20447;-58
2022/02/27 11:20:56;;;;;;;7.87;5.70;;;12.10;1.00;;;;;;5105642;28;20479;-58
2022/02/27 11:23:22;;;;;;;3.73;3.40;;;12.10;1.00;;;;;;5086483;28;20436;-58
2022/02/27 11:25:48;;;;;;;3.60;2.83;;;11.90;1.00;;;;;;5103784;28;20475;-59
2022/02/27 11:28:21;;;;;;;3.50;3.20;;;11.40;1.00;;;;;;5108924;28;20519;-57
2022/02/27 11:30:49;;;;;;;3.67;2.97;;;11.10;1.00;;;;;;5103726;28;20449;-58
2022/02/27 11:33:23;;;;;;;3.17;2.80;;;11.20;1.00;;;;;;5101282;28;20458;-57
2022/02/27 11:35:54;;;;;;;3.60;2.90;;;11.20;1.00;;;;;;5101956;28;20468;-57
2022/02/27 11:38:29;;;;;;;3.43;3.13;;;11.00;1.00;;;;;;5104686;28;20464;-58
2022/02/27 11:40:57;;;;;;;3.50;3.20;;;10.70;1.00;;;;;;5102858;28;20554;-58
2022/02/27 11:43:42;;;;;;;3.30;2.80;;;10.40;1.00;;;;;;5109343;28;20532;-56
2022/02/27 11:46:09;;;;;;;3.20;2.90;;;10.30;1.00;;;;;;5101433;28;20459;-57
2022/02/27 11:49:21;;;;;;;3.47;2.87;;;10.20;1.00;;;;;;5101492;28;20862;-58
2022/02/27 11:51:52;;;;;;;2.60;2.40;;;10.30;1.00;;;;;;5081490;28;20440;-57
2022/02/27 11:54:26;;;;;;;3.83;2.63;;;10.40;1.00;;;;;;5098055;28;20439;-58
2022/02/27 11:57:00;;;;;;;3.80;2.90;;;10.30;1.00;;;;;;5102167;28;20540;-57
2022/02/27 11:59:52;;;;;;;3.13;2.90;;;10.40;1.00;;;;;;5106747;28;20480;-57
2022/02/27 12:02:23;;;;;;;2.80;2.60;;;10.60;1.00;;;;;;5099414;28;20407;-60
2022/02/27 12:04:50;;;;;;;2.70;2.50;;;10.50;1.00;;;;;;5100933;28;20436;-59
2022/02/27 12:07:15;;;;;;;3.43;2.70;;;10.30;1.00;;;;;;5098759;28;20487;-60
2022/02/27 12:10:03;;;;;;;4.00;3.53;;;10.30;1.00;;;;;;5105410;28;20407;-59
2022/02/27 12:12:37;;;;;;;3.20;2.90;;;10.20;1.00;;;;;;5094521;28;20683;-60
2022/02/27 12:15:28;;;;;;;3.10;2.80;;;10.10;1.00;;;;;;5098008;28;20414;-59
2022/02/27 12:18:18;;;;;;;7.60;2.93;;;10.10;1.00;;;;;;5106409;28;20410;-59
2022/02/27 12:20:54;;;;;;;6.33;3.60;;;10.20;1.00;;;;;;5095958;28;20984;-59
2022/02/27 12:23:31;;;;;;;4.73;3.27;;;10.30;1.00;;;;;;5095318;28;20444;-59
2022/02/27 12:26:08;;;;;;;3.87;3.13;;;10.30;1.00;;;;;;5098610;28;20433;-60
2022/02/27 12:28:49;;;;;;;4.00;3.27;;;10.30;1.00;;;;;;5103097;28;20431;-60
2022/02/27 12:31:27;;;;;;;5.60;3.60;;;10.30;1.00;;;;;;5098831;28;20799;-58
2022/02/27 12:33:53;;;;;;;4.00;3.40;;;10.20;1.00;;;;;;5097291;28;20454;-59
2022/02/27 12:36:36;;;;;;;4.17;3.70;;;10.30;1.00;;;;;;5098808;28;20454;-60
2022/02/27 12:39:06;;;;;;;4.23;3.37;;;10.60;1.00;;;;;;5098568;28;20774;-59
2022/02/27 12:41:37;;;;;;;3.50;3.20;;;11.20;1.00;;;;;;5100034;28;20543;-60
2022/02/27 12:44:04;;;;;;;4.10;3.70;;;11.60;1.00;;;;;;5093941;28;20543;-61
2022/02/27 12:46:31;;;;;;;4.20;3.80;;;11.60;1.00;;;;;;5092435;28;20433;-59
2022/02/27 12:51:42;;;;;;;4.50;3.87;;;11.70;1.00;;;;;;5109061;28;20479;-59
2022/02/27 12:54:23;;;;;;;5.20;3.80;;;11.70;1.00;;;;;;5109084;28;20476;-59
2022/02/27 12:57:07;;;;;;;4.23;3.83;;;11.30;1.00;;;;;;5098409;28;20458;-60
2022/02/27 12:59:38;;;;;;;4.30;3.90;;;11.10;1.00;;;;;;5097458;28;20442;-60
2022/02/27 13:02:05;;;;;;;6.63;4.33;;;10.80;1.00;;;;;;5091528;28;21244;-60
2022/02/27 13:04:33;;;;;;;5.60;5.00;;;10.80;1.00;;;;;;5091211;28;20455;-60
2022/02/27 13:07:00;;;;;;;6.03;5.17;;;10.80;1.00;;;;;;5090099;28;20444;-58
2022/02/27 13:09:27;;;;;;;4.93;4.37;;;10.60;1.00;;;;;;5106403;28;20442;-61